Young America, Minnesota
Current Conditions -  °F | °C
As of 2:13 PM on Friday 24 Oct 2014 (Local Time) from KGYL Reporting Station
Clear Clear  
Wind Chill: 67°   Ceiling: Unl
Heat Index: 67°   Visibility: 10mi
Dew Point: 55°   Wind: 6mph
Humidity: 65%   Direction: 220°SW
Pressure: 29.83"   Gusts: NA
Location:  44.78°N, 93.92°W
Report Text: KGYL 241913Z AUTO 22005KT 10SM CLR 20/13 A2983 RMK AO2 T01970130
Loading
Personal Weather Stations






























Interactive Weather Map New forecast layout! Learn more

10-Day Weather Forecast

Advertisements
Track Severe Weather on mobile